sensor_id;sensor_type;location;lat;lon;timestamp;P1;durP1;ratioP1;P2;durP2;ratioP2
21554;SDS011;10938;44.794;-0.676;2022-08-19T00:02:23;5.93;;;2.80;;
21554;SDS011;10938;44.794;-0.676;2022-08-19T00:04:50;6.20;;;3.00;;
21554;SDS011;10938;44.794;-0.676;2022-08-19T00:07:18;6.25;;;3.13;;
21554;SDS011;10938;44.794;-0.676;2022-08-19T00:09:44;7.03;;;3.10;;
21554;SDS011;10938;44.794;-0.676;2022-08-19T00:12:10;6.63;;;3.00;;
21554;SDS011;10938;44.794;-0.676;2022-08-19T00:14:37;6.90;;;3.30;;
21554;SDS011;10938;44.794;-0.676;2022-08-19T00:17:16;6.10;;;3.30;;
21554;SDS011;10938;44.794;-0.676;2022-08-19T00:19:50;4.22;;;2.97;;
21554;SDS011;10938;44.794;-0.676;2022-08-19T00:22:15;4.03;;;2.75;;
21554;SDS011;10938;44.794;-0.676;2022-08-19T00:24:47;6.55;;;3.05;;
21554;SDS011;10938;44.794;-0.676;2022-08-19T00:27:12;5.80;;;2.80;;
21554;SDS011;10938;44.794;-0.676;2022-08-19T00:29:45;7.40;;;3.33;;
21554;SDS011;10938;44.794;-0.676;2022-08-19T00:32:13;9.00;;;3.40;;
21554;SDS011;10938;44.794;-0.676;2022-08-19T00:34:39;6.60;;;3.25;;
21554;SDS011;10938;44.794;-0.676;2022-08-19T00:37:04;5.45;;;3.00;;
21554;SDS011;10938;44.794;-0.676;2022-08-19T00:39:30;6.88;;;3.17;;
21554;SDS011;10938;44.794;-0.676;2022-08-19T00:41:55;6.22;;;3.60;;
21554;SDS011;10938;44.794;-0.676;2022-08-19T00:44:23;6.38;;;3.30;;
21554;SDS011;10938;44.794;-0.676;2022-08-19T00:46:52;5.93;;;3.05;;
21554;SDS011;10938;44.794;-0.676;2022-08-19T00:52:04;6.15;;;2.97;;
21554;SDS011;10938;44.794;-0.676;2022-08-19T00:54:46;4.72;;;2.90;;
21554;SDS011;10938;44.794;-0.676;2022-08-19T00:57:14;6.05;;;3.70;;
21554;SDS011;10938;44.794;-0.676;2022-08-19T00:59:47;6.50;;;3.25;;
21554;SDS011;10938;44.794;-0.676;2022-08-19T01:02:19;5.35;;;3.80;;
21554;SDS011;10938;44.794;-0.676;2022-08-19T01:04:46;8.68;;;3.58;;
21554;SDS011;10938;44.794;-0.676;2022-08-19T01:07:12;7.88;;;3.30;;
21554;SDS011;10938;44.794;-0.676;2022-08-19T01:09:43;4.90;;;3.10;;
21554;SDS011;10938;44.794;-0.676;2022-08-19T01:12:09;6.30;;;3.42;;
21554;SDS011;10938;44.794;-0.676;2022-08-19T01:14:40;6.95;;;3.65;;
21554;SDS011;10938;44.794;-0.676;2022-08-19T01:17:07;5.45;;;3.30;;
21554;SDS011;10938;44.794;-0.676;2022-08-19T01:19:39;7.13;;;3.33;;
21554;SDS011;10938;44.794;-0.676;2022-08-19T01:22:30;4.57;;;3.10;;
21554;SDS011;10938;44.794;-0.676;2022-08-19T01:25:01;5.90;;;3.20;;
21554;SDS011;10938;44.794;-0.676;2022-08-19T01:27:27;5.70;;;2.97;;
21554;SDS011;10938;44.794;-0.676;2022-08-19T01:30:03;7.85;;;3.15;;
21554;SDS011;10938;44.794;-0.676;2022-08-19T01:32:31;5.60;;;3.00;;
21554;SDS011;10938;44.794;-0.676;2022-08-19T01:34:57;8.25;;;3.65;;
21554;SDS011;10938;44.794;-0.676;2022-08-19T01:37:27;7.93;;;3.55;;
21554;SDS011;10938;44.794;-0.676;2022-08-19T01:39:53;6.93;;;3.33;;
21554;SDS011;10938;44.794;-0.676;2022-08-19T01:42:25;8.63;;;3.00;;
21554;SDS011;10938;44.794;-0.676;2022-08-19T01:45:12;8.40;;;3.60;;
21554;SDS011;10938;44.794;-0.676;2022-08-19T01:47:41;5.57;;;3.47;;
21554;SDS011;10938;44.794;-0.676;2022-08-19T01:50:08;6.40;;;3.30;;
21554;SDS011;10938;44.794;-0.676;2022-08-19T01:52:36;7.47;;;3.47;;
21554;SDS011;10938;44.794;-0.676;2022-08-19T01:55:04;6.28;;;3.42;;
21554;SDS011;10938;44.794;-0.676;2022-08-19T01:57:32;5.30;;;3.28;;
21554;SDS011;10938;44.794;-0.676;2022-08-19T02:00:00;7.35;;;3.83;;
21554;SDS011;10938;44.794;-0.676;2022-08-19T02:02:32;4.93;;;3.40;;
21554;SDS011;10938;44.794;-0.676;2022-08-19T02:04:58;6.32;;;3.35;;
21554;SDS011;10938;44.794;-0.676;2022-08-19T02:07:23;7.50;;;3.35;;
21554;SDS011;10938;44.794;-0.676;2022-08-19T02:09:53;7.47;;;3.47;;
21554;SDS011;10938;44.794;-0.676;2022-08-19T02:12:27;10.93;;;3.42;;
21554;SDS011;10938;44.794;-0.676;2022-08-19T02:15:03;6.82;;;3.53;;
21554;SDS011;10938;44.794;-0.676;2022-08-19T02:17:32;7.18;;;3.70;;
21554;SDS011;10938;44.794;-0.676;2022-08-19T02:20:10;5.10;;;3.30;;
21554;SDS011;10938;44.794;-0.676;2022-08-19T02:22:38;8.05;;;3.78;;
21554;SDS011;10938;44.794;-0.676;2022-08-19T02:25:13;6.97;;;3.80;;
21554;SDS011;10938;44.794;-0.676;2022-08-19T02:27:41;7.07;;;3.30;;
21554;SDS011;10938;44.794;-0.676;2022-08-19T02:30:13;5.63;;;3.80;;
21554;SDS011;10938;44.794;-0.676;2022-08-19T02:32:53;8.25;;;4.00;;
21554;SDS011;10938;44.794;-0.676;2022-08-19T02:36:13;5.28;;;3.60;;
21554;SDS011;10938;44.794;-0.676;2022-08-19T02:38:55;6.93;;;3.60;;
21554;SDS011;10938;44.794;-0.676;2022-08-19T02:41:38;7.88;;;4.50;;
21554;SDS011;10938;44.794;-0.676;2022-08-19T02:44:04;6.07;;;3.50;;
21554;SDS011;10938;44.794;-0.676;2022-08-19T02:46:32;4.85;;;3.00;;
21554;SDS011;10938;44.794;-0.676;2022-08-19T02:49:00;4.97;;;3.50;;
21554;SDS011;10938;44.794;-0.676;2022-08-19T02:51:40;5.45;;;3.30;;
21554;SDS011;10938;44.794;-0.676;2022-08-19T02:54:07;6.22;;;3.67;;
21554;SDS011;10938;44.794;-0.676;2022-08-19T02:56:44;7.38;;;3.38;;
21554;SDS011;10938;44.794;-0.676;2022-08-19T02:59:10;9.65;;;4.35;;
21554;SDS011;10938;44.794;-0.676;2022-08-19T03:01:36;6.88;;;3.45;;
21554;SDS011;10938;44.794;-0.676;2022-08-19T03:04:05;5.00;;;3.42;;
21554;SDS011;10938;44.794;-0.676;2022-08-19T03:06:32;6.03;;;3.70;;
21554;SDS011;10938;44.794;-0.676;2022-08-19T03:09:10;7.57;;;3.85;;
21554;SDS011;10938;44.794;-0.676;2022-08-19T03:11:42;6.45;;;3.17;;
21554;SDS011;10938;44.794;-0.676;2022-08-19T03:14:18;3.78;;;3.15;;
21554;SDS011;10938;44.794;-0.676;2022-08-19T03:16:51;6.55;;;3.30;;
21554;SDS011;10938;44.794;-0.676;2022-08-19T03:19:18;6.75;;;3.88;;
21554;SDS011;10938;44.794;-0.676;2022-08-19T03:21:45;6.65;;;3.53;;
21554;SDS011;10938;44.794;-0.676;2022-08-19T03:24:11;8.57;;;3.90;;
21554;SDS011;10938;44.794;-0.676;2022-08-19T03:26:46;6.63;;;3.35;;
21554;SDS011;10938;44.794;-0.676;2022-08-19T03:29:20;8.13;;;3.90;;
21554;SDS011;10938;44.794;-0.676;2022-08-19T03:31:46;7.85;;;3.20;;
21554;SDS011;10938;44.794;-0.676;2022-08-19T03:34:15;6.70;;;3.30;;
21554;SDS011;10938;44.794;-0.676;2022-08-19T03:37:09;7.05;;;3.05;;
21554;SDS011;10938;44.794;-0.676;2022-08-19T03:39:40;9.30;;;3.97;;
21554;SDS011;10938;44.794;-0.676;2022-08-19T03:42:07;8.23;;;4.13;;
21554;SDS011;10938;44.794;-0.676;2022-08-19T03:44:34;6.53;;;3.58;;
21554;SDS011;10938;44.794;-0.676;2022-08-19T03:47:06;9.55;;;3.60;;
21554;SDS011;10938;44.794;-0.676;2022-08-19T03:49:39;5.75;;;3.38;;
21554;SDS011;10938;44.794;-0.676;2022-08-19T03:52:14;5.40;;;3.35;;
21554;SDS011;10938;44.794;-0.676;2022-08-19T03:54:40;7.68;;;3.70;;
21554;SDS011;10938;44.794;-0.676;2022-08-19T03:57:12;7.15;;;3.50;;
21554;SDS011;10938;44.794;-0.676;2022-08-19T03:59:48;6.25;;;3.22;;
21554;SDS011;10938;44.794;-0.676;2022-08-19T04:02:13;6.05;;;3.50;;
21554;SDS011;10938;44.794;-0.676;2022-08-19T04:04:42;6.55;;;3.92;;
21554;SDS011;10938;44.794;-0.676;2022-08-19T04:07:12;6.15;;;3.58;;
21554;SDS011;10938;44.794;-0.676;2022-08-19T04:09:45;8.20;;;3.80;;
21554;SDS011;10938;44.794;-0.676;2022-08-19T04:12:11;8.73;;;3.85;;
21554;SDS011;10938;44.794;-0.676;2022-08-19T04:14:40;5.68;;;3.35;;
21554;SDS011;10938;44.794;-0.676;2022-08-19T04:17:05;6.70;;;3.53;;
21554;SDS011;10938;44.794;-0.676;2022-08-19T04:19:31;8.55;;;3.78;;
21554;SDS011;10938;44.794;-0.676;2022-08-19T04:21:57;5.15;;;3.78;;
21554;SDS011;10938;44.794;-0.676;2022-08-19T04:24:23;5.63;;;3.33;;
21554;SDS011;10938;44.794;-0.676;2022-08-19T04:26:49;7.88;;;3.78;;
21554;SDS011;10938;44.794;-0.676;2022-08-19T04:29:16;6.50;;;3.38;;
21554;SDS011;10938;44.794;-0.676;2022-08-19T04:32:26;6.38;;;3.42;;
21554;SDS011;10938;44.794;-0.676;2022-08-19T04:34:56;5.07;;;3.38;;
21554;SDS011;10938;44.794;-0.676;2022-08-19T04:37:26;8.80;;;4.05;;
21554;SDS011;10938;44.794;-0.676;2022-08-19T04:39:59;7.18;;;3.67;;
21554;SDS011;10938;44.794;-0.676;2022-08-19T04:42:49;8.45;;;4.03;;
21554;SDS011;10938;44.794;-0.676;2022-08-19T04:45:15;7.97;;;3.42;;
21554;SDS011;10938;44.794;-0.676;2022-08-19T04:47:42;5.55;;;3.30;;
21554;SDS011;10938;44.794;-0.676;2022-08-19T04:50:09;7.25;;;3.40;;
21554;SDS011;10938;44.794;-0.676;2022-08-19T04:52:55;7.15;;;3.58;;
21554;SDS011;10938;44.794;-0.676;2022-08-19T04:55:23;7.25;;;3.60;;
21554;SDS011;10938;44.794;-0.676;2022-08-19T04:57:54;7.65;;;3.50;;
21554;SDS011;10938;44.794;-0.676;2022-08-19T05:00:23;6.10;;;3.50;;
21554;SDS011;10938;44.794;-0.676;2022-08-19T05:02:49;5.00;;;3.63;;
21554;SDS011;10938;44.794;-0.676;2022-08-19T05:05:14;7.47;;;4.13;;
21554;SDS011;10938;44.794;-0.676;2022-08-19T05:07:40;8.57;;;4.22;;
21554;SDS011;10938;44.794;-0.676;2022-08-19T05:10:06;6.05;;;3.55;;
21554;SDS011;10938;44.794;-0.676;2022-08-19T05:12:32;6.20;;;3.75;;
21554;SDS011;10938;44.794;-0.676;2022-08-19T05:14:58;5.07;;;3.25;;
21554;SDS011;10938;44.794;-0.676;2022-08-19T05:17:25;6.32;;;3.17;;
21554;SDS011;10938;44.794;-0.676;2022-08-19T05:19:51;7.28;;;4.03;;
21554;SDS011;10938;44.794;-0.676;2022-08-19T05:22:36;5.28;;;3.67;;
21554;SDS011;10938;44.794;-0.676;2022-08-19T05:25:06;5.65;;;3.10;;
21554;SDS011;10938;44.794;-0.676;2022-08-19T05:27:40;6.50;;;3.33;;
21554;SDS011;10938;44.794;-0.676;2022-08-19T05:30:06;5.13;;;3.67;;
21554;SDS011;10938;44.794;-0.676;2022-08-19T05:32:33;5.78;;;3.72;;
21554;SDS011;10938;44.794;-0.676;2022-08-19T05:34:59;7.32;;;4.25;;
21554;SDS011;10938;44.794;-0.676;2022-08-19T05:37:25;6.78;;;3.47;;
21554;SDS011;10938;44.794;-0.676;2022-08-19T05:39:52;4.90;;;3.28;;
21554;SDS011;10938;44.794;-0.676;2022-08-19T05:42:22;7.28;;;3.60;;
21554;SDS011;10938;44.794;-0.676;2022-08-19T05:44:49;3.90;;;2.90;;
21554;SDS011;10938;44.794;-0.676;2022-08-19T05:47:14;4.90;;;3.20;;
21554;SDS011;10938;44.794;-0.676;2022-08-19T05:49:49;6.28;;;3.08;;
21554;SDS011;10938;44.794;-0.676;2022-08-19T05:52:18;4.78;;;2.97;;
21554;SDS011;10938;44.794;-0.676;2022-08-19T05:54:56;7.20;;;3.45;;
21554;SDS011;10938;44.794;-0.676;2022-08-19T05:57:22;5.38;;;3.85;;
21554;SDS011;10938;44.794;-0.676;2022-08-19T05:59:51;5.32;;;3.47;;
21554;SDS011;10938;44.794;-0.676;2022-08-19T06:02:23;5.57;;;2.95;;
21554;SDS011;10938;44.794;-0.676;2022-08-19T06:05:16;5.38;;;2.97;;
21554;SDS011;10938;44.794;-0.676;2022-08-19T06:07:43;7.28;;;3.05;;
21554;SDS011;10938;44.794;-0.676;2022-08-19T06:10:18;5.47;;;2.80;;
21554;SDS011;10938;44.794;-0.676;2022-08-19T06:12:44;5.22;;;3.10;;
21554;SDS011;10938;44.794;-0.676;2022-08-19T06:15:12;6.05;;;3.05;;
21554;SDS011;10938;44.794;-0.676;2022-08-19T06:17:45;7.45;;;2.50;;
21554;SDS011;10938;44.794;-0.676;2022-08-19T06:20:16;6.35;;;2.38;;
21554;SDS011;10938;44.794;-0.676;2022-08-19T06:22:45;6.47;;;2.95;;
21554;SDS011;10938;44.794;-0.676;2022-08-19T06:25:15;4.75;;;2.33;;
21554;SDS011;10938;44.794;-0.676;2022-08-19T06:27:44;6.50;;;2.72;;
21554;SDS011;10938;44.794;-0.676;2022-08-19T06:30:12;6.78;;;2.72;;
21554;SDS011;10938;44.794;-0.676;2022-08-19T06:32:39;3.95;;;2.30;;
21554;SDS011;10938;44.794;-0.676;2022-08-19T06:35:05;4.93;;;2.75;;
21554;SDS011;10938;44.794;-0.676;2022-08-19T06:37:31;2.97;;;2.38;;
21554;SDS011;10938;44.794;-0.676;2022-08-19T06:39:57;4.63;;;2.40;;
21554;SDS011;10938;44.794;-0.676;2022-08-19T06:42:23;2.65;;;1.95;;
21554;SDS011;10938;44.794;-0.676;2022-08-19T06:44:53;5.00;;;2.42;;
21554;SDS011;10938;44.794;-0.676;2022-08-19T06:47:20;5.43;;;2.40;;
21554;SDS011;10938;44.794;-0.676;2022-08-19T06:49:47;5.10;;;2.20;;
21554;SDS011;10938;44.794;-0.676;2022-08-19T06:52:13;3.50;;;2.38;;
21554;SDS011;10938;44.794;-0.676;2022-08-19T06:54:42;4.55;;;2.75;;
21554;SDS011;10938;44.794;-0.676;2022-08-19T06:57:08;6.20;;;2.47;;
21554;SDS011;10938;44.794;-0.676;2022-08-19T06:59:39;5.32;;;2.70;;
21554;SDS011;10938;44.794;-0.676;2022-08-19T07:02:17;3.85;;;2.38;;
21554;SDS011;10938;44.794;-0.676;2022-08-19T07:04:59;4.00;;;2.80;;
21554;SDS011;10938;44.794;-0.676;2022-08-19T07:07:31;7.70;;;2.22;;
21554;SDS011;10938;44.794;-0.676;2022-08-19T07:10:04;8.10;;;2.35;;
21554;SDS011;10938;44.794;-0.676;2022-08-19T07:12:31;3.42;;;2.58;;
21554;SDS011;10938;44.794;-0.676;2022-08-19T07:15:03;3.33;;;2.20;;
21554;SDS011;10938;44.794;-0.676;2022-08-19T07:17:33;5.00;;;2.40;;
21554;SDS011;10938;44.794;-0.676;2022-08-19T07:20:02;6.07;;;2.13;;
21554;SDS011;10938;44.794;-0.676;2022-08-19T07:22:28;4.38;;;2.55;;
21554;SDS011;10938;44.794;-0.676;2022-08-19T07:24:56;4.03;;;2.35;;
21554;SDS011;10938;44.794;-0.676;2022-08-19T07:27:21;4.13;;;2.08;;
21554;SDS011;10938;44.794;-0.676;2022-08-19T07:29:54;3.70;;;2.28;;
21554;SDS011;10938;44.794;-0.676;2022-08-19T07:32:30;4.28;;;2.10;;
21554;SDS011;10938;44.794;-0.676;2022-08-19T07:34:56;3.40;;;2.25;;
21554;SDS011;10938;44.794;-0.676;2022-08-19T07:37:23;6.18;;;2.30;;
21554;SDS011;10938;44.794;-0.676;2022-08-19T07:39:51;3.90;;;2.53;;
21554;SDS011;10938;44.794;-0.676;2022-08-19T07:42:17;3.13;;;2.20;;
21554;SDS011;10938;44.794;-0.676;2022-08-19T07:44:43;5.13;;;2.90;;
21554;SDS011;10938;44.794;-0.676;2022-08-19T07:47:09;3.90;;;2.70;;
21554;SDS011;10938;44.794;-0.676;2022-08-19T07:49:35;3.70;;;2.38;;
21554;SDS011;10938;44.794;-0.676;2022-08-19T07:52:03;3.35;;;2.53;;
21554;SDS011;10938;44.794;-0.676;2022-08-19T07:54:34;6.03;;;2.40;;
21554;SDS011;10938;44.794;-0.676;2022-08-19T07:57:11;6.32;;;2.33;;
21554;SDS011;10938;44.794;-0.676;2022-08-19T07:59:52;3.05;;;2.00;;
21554;SDS011;10938;44.794;-0.676;2022-08-19T08:02:18;3.93;;;2.37;;
21554;SDS011;10938;44.794;-0.676;2022-08-19T08:04:44;3.13;;;2.42;;
21554;SDS011;10938;44.794;-0.676;2022-08-19T08:07:28;3.72;;;2.28;;
21554;SDS011;10938;44.794;-0.676;2022-08-19T08:10:12;2.77;;;2.13;;
21554;SDS011;10938;44.794;-0.676;2022-08-19T08:12:39;3.42;;;2.28;;
21554;SDS011;10938;44.794;-0.676;2022-08-19T08:15:09;3.65;;;1.98;;
21554;SDS011;10938;44.794;-0.676;2022-08-19T08:17:36;2.47;;;1.77;;
21554;SDS011;10938;44.794;-0.676;2022-08-19T08:20:04;2.08;;;1.75;;
21554;SDS011;10938;44.794;-0.676;2022-08-19T08:22:44;2.72;;;1.80;;
21554;SDS011;10938;44.794;-0.676;2022-08-19T08:25:30;3.92;;;1.92;;
21554;SDS011;10938;44.794;-0.676;2022-08-19T08:28:12;3.17;;;1.83;;
21554;SDS011;10938;44.794;-0.676;2022-08-19T08:30:39;2.22;;;1.70;;
21554;SDS011;10938;44.794;-0.676;2022-08-19T08:33:07;2.28;;;1.80;;
21554;SDS011;10938;44.794;-0.676;2022-08-19T08:35:33;2.00;;;1.73;;
21554;SDS011;10938;44.794;-0.676;2022-08-19T08:38:00;3.25;;;1.63;;
21554;SDS011;10938;44.794;-0.676;2022-08-19T08:40:39;3.92;;;2.05;;
21554;SDS011;10938;44.794;-0.676;2022-08-19T08:43:53;2.58;;;1.88;;
21554;SDS011;10938;44.794;-0.676;2022-08-19T08:47:14;2.72;;;2.00;;
21554;SDS011;10938;44.794;-0.676;2022-08-19T08:49:59;2.08;;;1.80;;
21554;SDS011;10938;44.794;-0.676;2022-08-19T08:52:48;2.75;;;1.98;;
21554;SDS011;10938;44.794;-0.676;2022-08-19T08:55:26;2.15;;;1.80;;
21554;SDS011;10938;44.794;-0.676;2022-08-19T08:58:04;2.00;;;1.80;;
21554;SDS011;10938;44.794;-0.676;2022-08-19T09:00:37;2.33;;;1.95;;
21554;SDS011;10938;44.794;-0.676;2022-08-19T09:03:16;4.00;;;2.30;;
21554;SDS011;10938;44.794;-0.676;2022-08-19T09:10:52;3.00;;;2.17;;
21554;SDS011;10938;44.794;-0.676;2022-08-19T09:15:48;3.55;;;1.60;;
21554;SDS011;10938;44.794;-0.676;2022-08-19T09:18:20;3.28;;;1.88;;
21554;SDS011;10938;44.794;-0.676;2022-08-19T09:20:46;3.33;;;1.80;;
21554;SDS011;10938;44.794;-0.676;2022-08-19T09:23:15;1.88;;;1.52;;
21554;SDS011;10938;44.794;-0.676;2022-08-19T09:25:49;3.70;;;1.75;;
21554;SDS011;10938;44.794;-0.676;2022-08-19T09:28:15;3.03;;;1.55;;
21554;SDS011;10938;44.794;-0.676;2022-08-19T09:30:41;3.55;;;1.90;;
21554;SDS011;10938;44.794;-0.676;2022-08-19T09:33:06;2.90;;;1.60;;
21554;SDS011;10938;44.794;-0.676;2022-08-19T09:35:33;2.42;;;1.60;;
21554;SDS011;10938;44.794;-0.676;2022-08-19T09:38:00;2.53;;;1.48;;
21554;SDS011;10938;44.794;-0.676;2022-08-19T09:40:32;2.83;;;1.67;;
21554;SDS011;10938;44.794;-0.676;2022-08-19T09:42:58;3.67;;;1.60;;
21554;SDS011;10938;44.794;-0.676;2022-08-19T09:45:34;3.65;;;1.70;;
21554;SDS011;10938;44.794;-0.676;2022-08-19T09:48:15;2.42;;;1.50;;
21554;SDS011;10938;44.794;-0.676;2022-08-19T09:50:53;2.70;;;1.75;;
21554;SDS011;10938;44.794;-0.676;2022-08-19T09:54:07;2.45;;;1.35;;
21554;SDS011;10938;44.794;-0.676;2022-08-19T09:57:10;1.90;;;1.30;;
21554;SDS011;10938;44.794;-0.676;2022-08-19T09:59:36;2.65;;;1.45;;
21554;SDS011;10938;44.794;-0.676;2022-08-19T10:02:01;1.83;;;1.40;;
21554;SDS011;10938;44.794;-0.676;2022-08-19T10:04:27;2.53;;;1.27;;
21554;SDS011;10938;44.794;-0.676;2022-08-19T10:07:12;3.60;;;1.40;;
21554;SDS011;10938;44.794;-0.676;2022-08-19T10:09:38;2.70;;;1.35;;
21554;SDS011;10938;44.794;-0.676;2022-08-19T10:12:06;2.03;;;1.40;;
21554;SDS011;10938;44.794;-0.676;2022-08-19T10:14:35;1.20;;;1.10;;
21554;SDS011;10938;44.794;-0.676;2022-08-19T10:17:38;2.38;;;1.30;;
21554;SDS011;10938;44.794;-0.676;2022-08-19T10:20:25;2.25;;;1.20;;
21554;SDS011;10938;44.794;-0.676;2022-08-19T10:22:57;2.13;;;1.13;;
21554;SDS011;10938;44.794;-0.676;2022-08-19T10:26:02;1.70;;;1.10;;
21554;SDS011;10938;44.794;-0.676;2022-08-19T10:28:31;1.95;;;1.30;;
21554;SDS011;10938;44.794;-0.676;2022-08-19T10:30:57;2.78;;;1.30;;
21554;SDS011;10938;44.794;-0.676;2022-08-19T10:33:32;2.03;;;1.20;;
21554;SDS011;10938;44.794;-0.676;2022-08-19T10:36:32;1.63;;;1.33;;
21554;SDS011;10938;44.794;-0.676;2022-08-19T10:39:01;3.53;;;1.35;;
21554;SDS011;10938;44.794;-0.676;2022-08-19T10:41:46;2.47;;;1.30;;
21554;SDS011;10938;44.794;-0.676;2022-08-19T10:44:45;1.40;;;1.10;;
21554;SDS011;10938;44.794;-0.676;2022-08-19T10:47:18;2.60;;;1.30;;
21554;SDS011;10938;44.794;-0.676;2022-08-19T10:49:44;2.15;;;1.30;;
21554;SDS011;10938;44.794;-0.676;2022-08-19T10:52:41;3.70;;;1.20;;
21554;SDS011;10938;44.794;-0.676;2022-08-19T10:55:11;1.50;;;1.20;;
21554;SDS011;10938;44.794;-0.676;2022-08-19T10:57:59;3.80;;;1.70;;
21554;SDS011;10938;44.794;-0.676;2022-08-19T11:00:25;1.98;;;1.23;;
21554;SDS011;10938;44.794;-0.676;2022-08-19T11:02:51;3.42;;;1.40;;
21554;SDS011;10938;44.794;-0.676;2022-08-19T11:05:18;2.08;;;1.10;;
21554;SDS011;10938;44.794;-0.676;2022-08-19T11:07:44;1.73;;;1.10;;
21554;SDS011;10938;44.794;-0.676;2022-08-19T11:10:12;3.90;;;1.30;;
21554;SDS011;10938;44.794;-0.676;2022-08-19T11:12:42;2.05;;;1.20;;
21554;SDS011;10938;44.794;-0.676;2022-08-19T11:15:31;1.45;;;1.13;;
21554;SDS011;10938;44.794;-0.676;2022-08-19T11:19:02;1.52;;;1.30;;
21554;SDS011;10938;44.794;-0.676;2022-08-19T11:21:38;2.00;;;1.30;;
21554;SDS011;10938;44.794;-0.676;2022-08-19T11:24:28;1.55;;;1.00;;
21554;SDS011;10938;44.794;-0.676;2022-08-19T11:27:00;2.33;;;1.10;;
21554;SDS011;10938;44.794;-0.676;2022-08-19T11:29:27;2.70;;;1.02;;
21554;SDS011;10938;44.794;-0.676;2022-08-19T11:31:54;2.10;;;1.30;;
21554;SDS011;10938;44.794;-0.676;2022-08-19T11:34:22;1.55;;;1.05;;
21554;SDS011;10938;44.794;-0.676;2022-08-19T11:36:56;2.20;;;1.02;;
21554;SDS011;10938;44.794;-0.676;2022-08-19T11:39:36;3.20;;;1.13;;
21554;SDS011;10938;44.794;-0.676;2022-08-19T11:42:18;2.15;;;1.00;;
21554;SDS011;10938;44.794;-0.676;2022-08-19T11:45:02;3.22;;;1.10;;
21554;SDS011;10938;44.794;-0.676;2022-08-19T11:47:29;2.65;;;1.23;;
21554;SDS011;10938;44.794;-0.676;2022-08-19T11:50:03;3.45;;;1.33;;
21554;SDS011;10938;44.794;-0.676;2022-08-19T11:52:32;3.17;;;1.40;;
21554;SDS011;10938;44.794;-0.676;2022-08-19T11:54:58;2.80;;;1.30;;
21554;SDS011;10938;44.794;-0.676;2022-08-19T11:57:24;1.10;;;1.00;;
21554;SDS011;10938;44.794;-0.676;2022-08-19T11:59:51;1.92;;;1.00;;
21554;SDS011;10938;44.794;-0.676;2022-08-19T12:02:22;3.13;;;1.40;;
21554;SDS011;10938;44.794;-0.676;2022-08-19T12:05:07;1.77;;;1.30;;
21554;SDS011;10938;44.794;-0.676;2022-08-19T12:07:33;1.55;;;1.10;;
21554;SDS011;10938;44.794;-0.676;2022-08-19T12:09:59;1.88;;;1.20;;
21554;SDS011;10938;44.794;-0.676;2022-08-19T12:12:32;4.03;;;1.20;;
21554;SDS011;10938;44.794;-0.676;2022-08-19T12:15:00;2.08;;;1.20;;
21554;SDS011;10938;44.794;-0.676;2022-08-19T12:17:30;2.10;;;1.10;;
21554;SDS011;10938;44.794;-0.676;2022-08-19T12:19:57;2.35;;;1.00;;
21554;SDS011;10938;44.794;-0.676;2022-08-19T12:22:27;2.63;;;1.35;;
21554;SDS011;10938;44.794;-0.676;2022-08-19T12:24:53;2.45;;;1.23;;
21554;SDS011;10938;44.794;-0.676;2022-08-19T12:27:20;1.33;;;1.23;;
21554;SDS011;10938;44.794;-0.676;2022-08-19T12:29:45;3.33;;;1.33;;
21554;SDS011;10938;44.794;-0.676;2022-08-19T12:32:11;2.65;;;1.30;;
21554;SDS011;10938;44.794;-0.676;2022-08-19T12:34:37;1.95;;;1.00;;
21554;SDS011;10938;44.794;-0.676;2022-08-19T12:37:03;1.17;;;1.00;;
21554;SDS011;10938;44.794;-0.676;2022-08-19T12:39:41;1.77;;;1.08;;
21554;SDS011;10938;44.794;-0.676;2022-08-19T12:42:09;5.28;;;1.10;;
21554;SDS011;10938;44.794;-0.676;2022-08-19T12:44:38;2.05;;;1.10;;
21554;SDS011;10938;44.794;-0.676;2022-08-19T12:47:05;4.80;;;1.27;;
21554;SDS011;10938;44.794;-0.676;2022-08-19T12:49:32;1.92;;;1.10;;
21554;SDS011;10938;44.794;-0.676;2022-08-19T12:52:04;3.25;;;1.38;;
21554;SDS011;10938;44.794;-0.676;2022-08-19T12:54:32;8.82;;;1.50;;
21554;SDS011;10938;44.794;-0.676;2022-08-19T12:56:59;2.95;;;1.10;;
21554;SDS011;10938;44.794;-0.676;2022-08-19T12:59:31;2.42;;;0.98;;
21554;SDS011;10938;44.794;-0.676;2022-08-19T13:01:59;2.47;;;1.23;;
21554;SDS011;10938;44.794;-0.676;2022-08-19T13:04:25;1.17;;;0.85;;
21554;SDS011;10938;44.794;-0.676;2022-08-19T13:06:54;1.65;;;1.00;;
21554;SDS011;10938;44.794;-0.676;2022-08-19T13:09:21;3.80;;;1.20;;
21554;SDS011;10938;44.794;-0.676;2022-08-19T13:11:55;3.33;;;1.20;;
21554;SDS011;10938;44.794;-0.676;2022-08-19T13:14:44;6.18;;;1.45;;
21554;SDS011;10938;44.794;-0.676;2022-08-19T13:17:19;1.63;;;1.00;;
21554;SDS011;10938;44.794;-0.676;2022-08-19T13:19:54;1.92;;;1.00;;
21554;SDS011;10938;44.794;-0.676;2022-08-19T13:22:21;2.42;;;0.85;;
21554;SDS011;10938;44.794;-0.676;2022-08-19T13:24:51;1.73;;;0.88;;
21554;SDS011;10938;44.794;-0.676;2022-08-19T13:27:21;1.83;;;0.90;;
21554;SDS011;10938;44.794;-0.676;2022-08-19T13:29:57;1.98;;;0.90;;
21554;SDS011;10938;44.794;-0.676;2022-08-19T13:32:41;0.90;;;0.80;;
21554;SDS011;10938;44.794;-0.676;2022-08-19T13:35:25;1.45;;;0.90;;
21554;SDS011;10938;44.794;-0.676;2022-08-19T13:37:50;1.17;;;0.70;;
21554;SDS011;10938;44.794;-0.676;2022-08-19T13:40:20;1.52;;;0.90;;
21554;SDS011;10938;44.794;-0.676;2022-08-19T13:42:52;1.80;;;0.85;;
21554;SDS011;10938;44.794;-0.676;2022-08-19T13:45:23;1.23;;;0.77;;
21554;SDS011;10938;44.794;-0.676;2022-08-19T13:47:52;1.17;;;0.77;;
21554;SDS011;10938;44.794;-0.676;2022-08-19T13:50:24;0.90;;;0.70;;
21554;SDS011;10938;44.794;-0.676;2022-08-19T13:52:56;1.42;;;0.90;;
21554;SDS011;10938;44.794;-0.676;2022-08-19T13:55:23;1.92;;;0.90;;
21554;SDS011;10938;44.794;-0.676;2022-08-19T13:57:55;0.93;;;0.77;;
21554;SDS011;10938;44.794;-0.676;2022-08-19T14:00:33;1.70;;;1.00;;
21554;SDS011;10938;44.794;-0.676;2022-08-19T14:03:01;1.25;;;0.80;;
21554;SDS011;10938;44.794;-0.676;2022-08-19T14:05:29;1.50;;;0.80;;
21554;SDS011;10938;44.794;-0.676;2022-08-19T14:08:01;2.22;;;1.10;;
21554;SDS011;10938;44.794;-0.676;2022-08-19T14:10:57;4.63;;;0.90;;
21554;SDS011;10938;44.794;-0.676;2022-08-19T14:13:49;2.30;;;0.90;;
21554;SDS011;10938;44.794;-0.676;2022-08-19T14:16:23;3.30;;;1.00;;
21554;SDS011;10938;44.794;-0.676;2022-08-19T14:19:14;1.02;;;0.75;;
21554;SDS011;10938;44.794;-0.676;2022-08-19T14:21:41;0.63;;;0.60;;
21554;SDS011;10938;44.794;-0.676;2022-08-19T14:24:08;2.05;;;0.70;;
21554;SDS011;10938;44.794;-0.676;2022-08-19T14:26:34;1.15;;;0.73;;
21554;SDS011;10938;44.794;-0.676;2022-08-19T14:29:04;1.10;;;0.70;;
21554;SDS011;10938;44.794;-0.676;2022-08-19T14:31:30;2.25;;;0.80;;
21554;SDS011;10938;44.794;-0.676;2022-08-19T14:33:55;3.92;;;1.15;;
21554;SDS011;10938;44.794;-0.676;2022-08-19T14:36:21;1.20;;;0.80;;
21554;SDS011;10938;44.794;-0.676;2022-08-19T14:38:49;1.77;;;0.80;;
21554;SDS011;10938;44.794;-0.676;2022-08-19T14:41:17;3.03;;;0.98;;
21554;SDS011;10938;44.794;-0.676;2022-08-19T14:43:50;0.70;;;0.70;;
21554;SDS011;10938;44.794;-0.676;2022-08-19T14:46:24;2.17;;;0.70;;
21554;SDS011;10938;44.794;-0.676;2022-08-19T14:48:52;1.10;;;0.73;;
21554;SDS011;10938;44.794;-0.676;2022-08-19T14:51:22;1.92;;;0.70;;
21554;SDS011;10938;44.794;-0.676;2022-08-19T14:53:57;4.35;;;0.82;;
21554;SDS011;10938;44.794;-0.676;2022-08-19T14:56:33;1.75;;;0.98;;
21554;SDS011;10938;44.794;-0.676;2022-08-19T14:58:59;2.30;;;0.80;;
21554;SDS011;10938;44.794;-0.676;2022-08-19T15:01:31;1.27;;;0.73;;
21554;SDS011;10938;44.794;-0.676;2022-08-19T15:03:57;0.70;;;0.70;;
21554;SDS011;10938;44.794;-0.676;2022-08-19T15:06:26;1.08;;;0.77;;
21554;SDS011;10938;44.794;-0.676;2022-08-19T15:09:04;1.00;;;0.77;;
21554;SDS011;10938;44.794;-0.676;2022-08-19T15:11:30;1.02;;;0.70;;
21554;SDS011;10938;44.794;-0.676;2022-08-19T15:13:57;0.63;;;0.63;;